Time;durP1;ratioP1;P1;durP2;ratioP2;P2;SDS_P1;SDS_P2;PMS_P1;PMS_P2;Temp;Humidity;BMP_temperature;BMP_pressure;BME280_temperature;BME280_humidity;BME280_pressure;Samples;Min_cycle;Max_cycle;Signal;HPM_P1;HPM_P2
2022/03/15 00:01:19;;;;;;;;;;;3.00;99.90;;;;;;5093234;28;19920;-80
2022/03/15 00:03:46;;;;;;;;;;;3.10;99.90;;;;;;5095618;28;19995;-80
2022/03/15 00:06:12;;;;;;;;;;;3.10;99.90;;;;;;5094947;28;19915;-78
2022/03/15 00:08:37;;;;;;;;;;;3.10;99.90;;;;;;5095425;28;20357;-79
2022/03/15 00:11:05;;;;;;;;;;;3.00;99.90;;;;;;5095261;28;19916;-79
2022/03/15 00:13:35;;;;;;;;;;;2.90;99.90;;;;;;5094781;28;19955;-78
2022/03/15 00:16:01;;;;;;;;;;;2.90;99.90;;;;;;5094210;28;19912;-79
2022/03/15 00:18:29;;;;;;;;;;;2.80;99.90;;;;;;5093035;28;19915;-79
2022/03/15 00:20:55;;;;;;;;;;;2.80;99.90;;;;;;5095148;28;19908;-78
2022/03/15 00:23:20;;;;;;;;;;;2.70;99.90;;;;;;5094627;28;19915;-78
2022/03/15 00:25:46;;;;;;;;;;;2.80;99.90;;;;;;5095118;28;20364;-78
2022/03/15 00:28:11;;;;;;;;;;;2.80;99.90;;;;;;5094170;28;19935;-77
2022/03/15 00:30:37;;;;;;;;;;;2.80;99.90;;;;;;5095025;28;19908;-79
2022/03/15 00:33:03;;;;;;;;;;;2.80;99.90;;;;;;5095137;28;19995;-79
2022/03/15 00:35:29;;;;;;;;;;;2.80;99.90;;;;;;5094325;28;19968;-78
2022/03/15 00:37:55;;;;;;;;;;;2.80;99.90;;;;;;5095473;28;20340;-79
2022/03/15 00:40:22;;;;;;;;;;;2.70;99.90;;;;;;5113428;28;19908;-78
2022/03/15 00:42:50;;;;;;;;;;;2.70;99.90;;;;;;5094894;28;19916;-80
2022/03/15 00:45:16;;;;;;;;;;;2.70;99.90;;;;;;5094464;28;19908;-78
2022/03/15 00:47:42;;;;;;;;;;;2.70;99.90;;;;;;5094733;28;20284;-78
2022/03/15 00:50:07;;;;;;;;;;;2.70;99.90;;;;;;5094585;28;19959;-78
2022/03/15 00:52:33;;;;;;;;;;;2.80;99.90;;;;;;5093777;28;20262;-78
2022/03/15 00:54:59;;;;;;;;;;;2.80;99.90;;;;;;5094420;28;19916;-78
2022/03/15 00:57:24;;;;;;;;;;;2.80;99.90;;;;;;5093761;28;19972;-79
2022/03/15 00:59:50;;;;;;;;;;;2.70;99.90;;;;;;5094418;28;19908;-79
2022/03/15 01:02:16;;;;;;;;;;;2.70;99.90;;;;;;5093549;28;19920;-79
2022/03/15 01:04:41;;;;;;;;;;;2.60;99.90;;;;;;5094134;28;20381;-79
2022/03/15 01:07:07;;;;;;;;;;;2.70;99.90;;;;;;5093816;28;20376;-79
2022/03/15 01:09:34;;;;;;;;;;;2.60;99.90;;;;;;5092505;28;19904;-79
2022/03/15 01:11:59;;;;;;;;;;;2.60;99.90;;;;;;5094261;28;19954;-79
2022/03/15 01:14:27;;;;;;;;;;;2.60;99.90;;;;;;5093137;28;19916;-78
2022/03/15 01:16:54;;;;;;;;;;;2.60;99.90;;;;;;5094092;28;19965;-79
2022/03/15 01:19:20;;;;;;;;;;;2.60;99.90;;;;;;5093358;28;20007;-78
2022/03/15 01:21:45;;;;;;;;;;;2.60;99.90;;;;;;5094163;28;19958;-79
2022/03/15 01:24:11;;;;;;;;;;;2.60;99.90;;;;;;5094072;28;19912;-78
2022/03/15 01:26:40;;;;;;;;;;;2.60;99.90;;;;;;5093011;28;19912;-79
2022/03/15 01:29:05;;;;;;;;;;;2.70;99.90;;;;;;5094010;28;19943;-79
2022/03/15 01:31:31;;;;;;;;;;;2.70;99.90;;;;;;5093094;28;19955;-78
2022/03/15 01:33:56;;;;;;;;;;;2.70;99.90;;;;;;5093867;28;19912;-79
2022/03/15 01:36:22;;;;;;;;;;;2.70;99.90;;;;;;5093253;28;20380;-78
2022/03/15 01:38:48;;;;;;;;;;;2.60;99.90;;;;;;5093486;28;19941;-79
2022/03/15 01:41:13;;;;;;;;;;;2.60;99.90;;;;;;5093598;28;20364;-78
2022/03/15 01:43:41;;;;;;;;;;;2.50;99.90;;;;;;5093327;28;19916;-79
2022/03/15 01:46:07;;;;;;;;;;;2.50;99.90;;;;;;5093329;28;19908;-79
2022/03/15 01:48:32;;;;;;;;;;;2.50;99.90;;;;;;5093075;28;20374;-79
2022/03/15 01:50:58;;;;;;;;;;;2.40;99.90;;;;;;5093367;28;20374;-79
2022/03/15 01:53:24;;;;;;;;;;;2.50;99.90;;;;;;5092678;28;19908;-79
2022/03/15 01:55:50;;;;;;;;;;;2.60;99.90;;;;;;5102503;28;19912;-79
2022/03/15 01:58:16;;;;;;;;;;;2.70;99.90;;;;;;5095820;28;20048;-78
2022/03/15 02:00:41;;;;;;;;;;;2.60;99.90;;;;;;5092988;28;19918;-79
2022/03/15 02:03:07;;;;;;;;;;;2.70;99.90;;;;;;5093127;28;19912;-79
2022/03/15 02:05:32;;;;;;;;;;;2.70;99.90;;;;;;5092562;28;19908;-80
2022/03/15 02:08:06;;;;;;;;;;;2.60;99.90;;;;;;5093208;28;20353;-80
2022/03/15 02:10:32;;;;;;;;;;;2.60;99.90;;;;;;5092796;28;20422;-78
2022/03/15 02:12:57;;;;;;;;;;;2.60;99.90;;;;;;5093718;28;19912;-79
2022/03/15 02:15:23;;;;;;;;;;;2.60;99.90;;;;;;5092475;28;19954;-78
2022/03/15 02:17:48;;;;;;;;;;;2.50;99.90;;;;;;5125840;27;20273;-79
2022/03/15 02:20:14;;;;;;;;;;;2.50;99.90;;;;;;5093087;28;19908;-79
2022/03/15 02:22:39;;;;;;;;;;;2.40;99.90;;;;;;5092544;28;19912;-80
2022/03/15 02:25:05;;;;;;;;;;;2.40;99.90;;;;;;5093162;28;19908;-80
2022/03/15 02:27:31;;;;;;;;;;;2.40;99.90;;;;;;5092836;28;19908;-80
2022/03/15 02:29:56;;;;;;;;;;;2.30;99.90;;;;;;5093162;28;20357;-80
2022/03/15 02:32:22;;;;;;;;;;;2.40;99.90;;;;;;5092402;28;19940;-79
2022/03/15 02:34:47;;;;;;;;;;;2.30;99.90;;;;;;5092900;28;19912;-80
2022/03/15 02:37:13;;;;;;;;;;;2.30;99.90;;;;;;5092990;28;19912;-79
2022/03/15 02:39:39;;;;;;;;;;;2.30;99.90;;;;;;5095123;28;20455;-79
2022/03/15 02:42:04;;;;;;;;;;;2.30;99.90;;;;;;5096819;28;19908;-79
2022/03/15 02:44:30;;;;;;;;;;;2.30;99.90;;;;;;5095228;28;20311;-79
2022/03/15 02:46:56;;;;;;;;;;;2.30;99.90;;;;;;5096998;28;19915;-79
2022/03/15 02:49:22;;;;;;;;;;;2.30;99.90;;;;;;5096403;28;19908;-78
2022/03/15 02:51:47;;;;;;;;;;;2.20;99.90;;;;;;5097297;28;19908;-79
2022/03/15 02:54:13;;;;;;;;;;;2.20;99.90;;;;;;5096862;28;20019;-79
2022/03/15 02:56:42;;;;;;;;;;;2.30;99.90;;;;;;5096617;28;20445;-79
2022/03/15 02:59:08;;;;;;;;;;;2.30;99.90;;;;;;5096803;28;19947;-80
2022/03/15 03:01:34;;;;;;;;;;;2.40;99.90;;;;;;5095746;28;19962;-79
2022/03/15 03:03:59;;;;;;;;;;;2.40;99.90;;;;;;5096734;28;19908;-80
2022/03/15 03:06:25;;;;;;;;;;;2.40;99.90;;;;;;5096321;28;20053;-79
2022/03/15 03:08:51;;;;;;;;;;;2.40;99.90;;;;;;5096470;28;19908;-80
2022/03/15 03:11:16;;;;;;;;;;;2.50;99.90;;;;;;5096984;28;19908;-80
2022/03/15 03:13:44;;;;;;;;;;;2.60;99.90;;;;;;5096438;28;19915;-80
2022/03/15 03:16:12;;;;;;;;;;;2.70;99.90;;;;;;5096579;28;19912;-80
2022/03/15 03:18:37;;;;;;;;;;;2.70;99.90;;;;;;5096168;28;19915;-79
2022/03/15 03:21:04;;;;;;;;;;;2.70;99.90;;;;;;5096341;28;19908;-79
2022/03/15 03:23:34;;;;;;;;;;;2.80;99.90;;;;;;5095561;28;19912;-79
2022/03/15 03:26:03;;;;;;;;;;;2.90;99.90;;;;;;5096323;28;19908;-79
2022/03/15 03:28:36;;;;;;;;;;;2.90;99.90;;;;;;5095272;28;19974;-79
2022/03/15 03:31:03;;;;;;;;;;;2.90;99.90;;;;;;5096204;28;19920;-80
2022/03/15 03:33:28;;;;;;;;;;;3.00;99.90;;;;;;5095669;28;19919;-79
2022/03/15 03:35:54;;;;;;;;;;;3.10;99.90;;;;;;5096148;28;19912;-79
2022/03/15 03:38:19;;;;;;;;;;;3.10;99.90;;;;;;5096144;28;19915;-79
2022/03/15 03:40:45;;;;;;;;;;;3.20;99.90;;;;;;5095442;28;20363;-79
2022/03/15 03:43:11;;;;;;;;;;;3.30;99.90;;;;;;5096158;28;19920;-79
2022/03/15 03:45:36;;;;;;;;;;;3.20;99.90;;;;;;5095404;28;20002;-79
2022/03/15 03:48:02;;;;;;;;;;;3.30;99.90;;;;;;5095587;28;19950;-79
2022/03/15 03:50:28;;;;;;;;;;;3.20;99.90;;;;;;5095080;28;20398;-79
2022/03/15 03:52:54;;;;;;;;;;;3.30;99.90;;;;;;5095835;28;20258;-79
2022/03/15 03:55:19;;;;;;;;;;;3.30;99.90;;;;;;5095486;28;19970;-79
2022/03/15 03:57:45;;;;;;;;;;;3.20;99.90;;;;;;5095130;28;20487;-79
2022/03/15 04:00:11;;;;;;;;;;;3.20;99.90;;;;;;5095423;28;20163;-79
2022/03/15 04:02:36;;;;;;;;;;;3.20;99.90;;;;;;5095206;28;19920;-79
2022/03/15 04:05:02;;;;;;;;;;;3.10;99.90;;;;;;5095332;28;19908;-79
2022/03/15 04:07:29;;;;;;;;;;;3.10;99.90;;;;;;5095229;28;20007;-79
2022/03/15 04:09:55;;;;;;;;;;;3.10;99.90;;;;;;5095147;28;20309;-79
2022/03/15 04:12:23;;;;;;;;;;;3.10;99.90;;;;;;5095472;28;20004;-80
2022/03/15 04:14:48;;;;;;;;;;;3.20;99.90;;;;;;5094684;28;19965;-79
2022/03/15 04:17:14;;;;;;;;;;;3.10;99.90;;;;;;5095251;28;19917;-79
2022/03/15 04:19:40;;;;;;;;;;;3.20;99.90;;;;;;5094692;28;20300;-79
2022/03/15 04:22:06;;;;;;;;;;;3.20;99.90;;;;;;5094012;28;19908;-79
2022/03/15 04:24:32;;;;;;;;;;;3.10;99.90;;;;;;5094693;28;19945;-79
2022/03/15 04:26:59;;;;;;;;;;;3.20;99.90;;;;;;5108628;28;20242;-79
2022/03/15 04:29:25;;;;;;;;;;;3.20;99.90;;;;;;5095223;28;20298;-79
2022/03/15 04:31:51;;;;;;;;;;;3.30;99.90;;;;;;5094432;28;19915;-79
2022/03/15 04:34:17;;;;;;;;;;;3.30;99.90;;;;;;5094908;28;19912;-79
2022/03/15 04:36:43;;;;;;;;;;;3.40;99.90;;;;;;5094483;28;20008;-79
2022/03/15 04:39:09;;;;;;;;;;;3.40;99.90;;;;;;5093731;28;20351;-80
2022/03/15 04:41:34;;;;;;;;;;;3.40;99.90;;;;;;5093867;28;19951;-79
2022/03/15 04:44:00;;;;;;;;;;;3.50;99.90;;;;;;5094611;28;19930;-79
2022/03/15 04:46:25;;;;;;;;;;;3.60;99.90;;;;;;5094852;28;20273;-79
2022/03/15 04:48:52;;;;;;;;;;;3.50;99.90;;;;;;5093997;28;19912;-79
2022/03/15 04:51:18;;;;;;;;;;;3.50;99.90;;;;;;5093413;28;19958;-79
2022/03/15 04:53:44;;;;;;;;;;;3.50;99.90;;;;;;5093972;28;19959;-79
2022/03/15 04:56:10;;;;;;;;;;;3.60;99.90;;;;;;5127621;27;19912;-79
2022/03/15 04:58:35;;;;;;;;;;;3.60;99.90;;;;;;5093990;28;19908;-79
2022/03/15 05:01:01;;;;;;;;;;;3.60;99.90;;;;;;5093883;28;19920;-79
2022/03/15 05:03:26;;;;;;;;;;;3.60;99.90;;;;;;5094321;28;20337;-79
2022/03/15 05:05:52;;;;;;;;;;;3.50;99.90;;;;;;5093887;28;19991;-79
2022/03/15 05:08:17;;;;;;;;;;;3.50;99.90;;;;;;5094407;28;19908;-79
2022/03/15 05:13:28;;;;;;;;;;;3.50;99.90;;;;;;5094033;28;19916;-79
2022/03/15 05:15:53;;;;;;;;;;;3.50;99.90;;;;;;5093412;28;19961;-79
2022/03/15 05:18:19;;;;;;;;;;;3.50;99.90;;;;;;5093948;28;19912;-79
2022/03/15 05:20:45;;;;;;;;;;;3.40;99.90;;;;;;5093268;28;19909;-79
2022/03/15 05:23:10;;;;;;;;;;;3.40;99.90;;;;;;5093604;28;19915;-79
2022/03/15 05:25:36;;;;;;;;;;;3.40;99.90;;;;;;5093378;28;19908;-79
2022/03/15 05:28:02;;;;;;;;;;;3.40;99.90;;;;;;5093950;28;19912;-79
2022/03/15 05:30:27;;;;;;;;;;;3.50;99.90;;;;;;5093832;28;19951;-79
2022/03/15 05:32:53;;;;;;;;;;;3.60;99.90;;;;;;5093253;28;19912;-79
2022/03/15 05:35:18;;;;;;;;;;;3.60;99.90;;;;;;5093646;28;20473;-79
2022/03/15 05:37:44;;;;;;;;;;;3.60;99.90;;;;;;5093164;28;19918;-79
2022/03/15 05:40:10;;;;;;;;;;;3.60;99.90;;;;;;5095182;28;19908;-80
2022/03/15 05:42:35;;;;;;;;;;;3.70;99.90;;;;;;5091524;28;20280;-79
2022/03/15 05:45:02;;;;;;;;;;;3.70;99.90;;;;;;5093576;28;19913;-79
2022/03/15 05:47:27;;;;;;;;;;;3.70;99.90;;;;;;5093378;28;20376;-79
2022/03/15 05:49:53;;;;;;;;;;;3.70;99.90;;;;;;5092694;28;19904;-79
2022/03/15 05:52:18;;;;;;;;;;;3.70;99.90;;;;;;5093440;28;20377;-79
2022/03/15 05:54:44;;;;;;;;;;;3.70;99.90;;;;;;5092753;28;19919;-79
2022/03/15 05:57:10;;;;;;;;;;;3.70;99.90;;;;;;5093603;28;19912;-79
2022/03/15 05:59:35;;;;;;;;;;;3.60;99.90;;;;;;5092842;28;19908;-78
2022/03/15 06:02:01;;;;;;;;;;;3.70;99.90;;;;;;5093361;28;19924;-79
2022/03/15 06:04:27;;;;;;;;;;;3.60;99.90;;;;;;5093312;28;19908;-79
2022/03/15 06:06:55;;;;;;;;;;;3.60;99.90;;;;;;5092768;28;19908;-79
2022/03/15 06:09:22;;;;;;;;;;;3.70;99.90;;;;;;5092886;28;19916;-79
2022/03/15 06:11:48;;;;;;;;;;;3.70;99.90;;;;;;5091303;28;20353;-78
2022/03/15 06:14:14;;;;;;;;;;;3.70;99.90;;;;;;5092130;28;19919;-79
2022/03/15 06:16:39;;;;;;;;;;;3.60;99.90;;;;;;5092699;28;19913;-79
2022/03/15 06:19:05;;;;;;;;;;;3.60;99.90;;;;;;5092869;28;19908;-79
2022/03/15 06:21:30;;;;;;;;;;;3.60;99.90;;;;;;5093084;28;19909;-79
2022/03/15 06:23:56;;;;;;;;;;;3.50;99.90;;;;;;5092615;28;19912;-79
2022/03/15 06:26:22;;;;;;;;;;;3.60;99.90;;;;;;5092768;28;20027;-79
2022/03/15 06:28:48;;;;;;;;;;;3.50;99.90;;;;;;5091194;28;19915;-79
2022/03/15 06:31:14;;;;;;;;;;;3.50;99.90;;;;;;5091672;28;19931;-79
2022/03/15 06:33:41;;;;;;;;;;;3.50;99.90;;;;;;5092059;28;19946;-78
2022/03/15 06:36:09;;;;;;;;;;;3.60;99.90;;;;;;5092785;28;20001;-79
2022/03/15 06:38:34;;;;;;;;;;;3.60;99.90;;;;;;5092906;28;19915;-79
2022/03/15 06:41:00;;;;;;;;;;;3.60;99.90;;;;;;5092563;28;19909;-79
2022/03/15 06:43:25;;;;;;;;;;;3.60;99.90;;;;;;5092540;28;20373;-79
2022/03/15 06:45:51;;;;;;;;;;;3.70;99.90;;;;;;5092681;28;19935;-79
2022/03/15 06:48:17;;;;;;;;;;;3.70;99.90;;;;;;5092896;28;19954;-79
2022/03/15 06:50:42;;;;;;;;;;;3.70;99.90;;;;;;5092147;28;19912;-79
2022/03/15 06:53:08;;;;;;;;;;;3.80;99.90;;;;;;5092903;28;19976;-79
2022/03/15 06:55:34;;;;;;;;;;;3.70;99.90;;;;;;5096122;28;19912;-79
2022/03/15 06:58:00;;;;;;;;;;;3.80;99.90;;;;;;5095468;28;19923;-79
2022/03/15 07:00:25;;;;;;;;;;;3.80;99.90;;;;;;5092628;28;20307;-80
2022/03/15 07:02:51;;;;;;;;;;;3.90;99.90;;;;;;5091974;28;20003;-79
2022/03/15 07:05:17;;;;;;;;;;;4.00;99.90;;;;;;5092791;28;19948;-79
2022/03/15 07:07:42;;;;;;;;;;;4.00;99.90;;;;;;5090860;28;20269;-79
2022/03/15 07:10:09;;;;;;;;;;;4.10;99.90;;;;;;5092445;28;20007;-80
2022/03/15 07:12:35;;;;;;;;;;;4.10;99.90;;;;;;5092282;28;20336;-79
2022/03/15 07:15:02;;;;;;;;;;;4.10;99.90;;;;;;5091882;28;20308;-79
2022/03/15 07:17:29;;;;;;;;;;;4.20;99.90;;;;;;5092601;28;19919;-79
2022/03/15 07:19:59;;;;;;;;;;;4.20;99.90;;;;;;5092426;28;19914;-79
2022/03/15 07:22:25;;;;;;;;;;;4.30;99.90;;;;;;5092563;28;19908;-79
2022/03/15 07:24:51;;;;;;;;;;;4.30;99.90;;;;;;5092991;28;19916;-79
2022/03/15 07:27:17;;;;;;;;;;;4.30;99.90;;;;;;5095760;28;19909;-79
2022/03/15 07:29:42;;;;;;;;;;;4.40;99.90;;;;;;5095556;28;19908;-78
2022/03/15 07:32:08;;;;;;;;;;;4.40;99.90;;;;;;5095764;28;19908;-80
2022/03/15 07:34:33;;;;;;;;;;;4.50;99.90;;;;;;5095759;28;19966;-78
2022/03/15 07:36:59;;;;;;;;;;;4.70;99.90;;;;;;5095064;28;20546;-78
2022/03/15 07:39:25;;;;;;;;;;;4.90;99.90;;;;;;5095899;28;19908;-78
2022/03/15 07:41:50;;;;;;;;;;;5.00;99.90;;;;;;5095275;28;20221;-78
2022/03/15 07:44:16;;;;;;;;;;;5.10;99.90;;;;;;5095852;28;19908;-78
2022/03/15 07:46:48;;;;;;;;;;;5.30;99.90;;;;;;5095361;28;20011;-76
2022/03/15 07:49:18;;;;;;;;;;;5.40;99.90;;;;;;5095498;28;20262;-78
2022/03/15 07:51:44;;;;;;;;;;;5.50;99.90;;;;;;5095178;28;19977;-76
2022/03/15 07:54:09;;;;;;;;;;;5.70;99.90;;;;;;5095485;28;20349;-78
2022/03/15 07:56:35;;;;;;;;;;;5.80;99.90;;;;;;5093966;28;20003;-78
2022/03/15 07:59:00;;;;;;;;;;;5.90;99.90;;;;;;5095344;28;20576;-78
2022/03/15 08:01:26;;;;;;;;;;;5.90;99.90;;;;;;5099879;28;19928;-78
2022/03/15 08:03:53;;;;;;;;;;;6.00;99.90;;;;;;5093221;28;19967;-78
2022/03/15 08:06:19;;;;;;;;;;;6.00;99.90;;;;;;5095573;28;19908;-78
2022/03/15 08:08:44;;;;;;;;;;;6.10;99.90;;;;;;5094783;28;19916;-77
2022/03/15 08:11:10;;;;;;;;;;;6.10;99.90;;;;;;5096167;28;19912;-79
2022/03/15 08:13:35;;;;;;;;;;;6.10;99.90;;;;;;5095669;28;19951;-79
2022/03/15 08:16:02;;;;;;;;;;;6.20;99.90;;;;;;5094704;28;20027;-79
2022/03/15 08:18:27;;;;;;;;;;;6.20;99.90;;;;;;5127974;27;19995;-79
2022/03/15 08:20:53;;;;;;;;;;;6.20;99.90;;;;;;5094346;28;20031;-78
2022/03/15 08:23:20;;;;;;;;;;;6.30;99.90;;;;;;5095131;28;19941;-79
2022/03/15 08:25:46;;;;;;;;;;;6.30;99.90;;;;;;5094503;28;19953;-77
2022/03/15 08:28:11;;;;;;;;;;;6.40;99.90;;;;;;5094721;28;19912;-78
2022/03/15 08:30:37;;;;;;;;;;;6.50;99.90;;;;;;5094525;28;19908;-78
2022/03/15 08:33:02;;;;;;;;;;;6.50;99.90;;;;;;5093181;28;19908;-78
2022/03/15 08:35:28;;;;;;;;;;;6.60;99.90;;;;;;5094167;28;19959;-76
2022/03/15 08:37:54;;;;;;;;;;;6.70;99.90;;;;;;5093010;28;19916;-78
2022/03/15 08:40:21;;;;;;;;;;;6.80;99.90;;;;;;5094216;28;19961;-76
2022/03/15 08:42:46;;;;;;;;;;;6.90;99.90;;;;;;5096379;28;20003;-76
2022/03/15 08:45:12;;;;;;;;;;;7.10;99.90;;;;;;5108805;28;19916;-77
2022/03/15 08:47:38;;;;;;;;;;;7.20;99.90;;;;;;5094295;28;19909;-78
2022/03/15 08:50:05;;;;;;;;;;;7.40;99.90;;;;;;5093761;28;20033;-77
2022/03/15 08:52:31;;;;;;;;;;;7.60;99.90;;;;;;5093605;28;20191;-77
2022/03/15 08:54:57;;;;;;;;;;;7.70;99.90;;;;;;5091264;28;19958;-76
2022/03/15 08:57:23;;;;;;;;;;;7.80;99.90;;;;;;5090541;28;19916;-76
2022/03/15 08:59:49;;;;;;;;;;;7.90;99.90;;;;;;5092250;28;20349;-77
2022/03/15 09:02:16;;;;;;;;;;;8.00;99.90;;;;;;5093963;28;19970;-77
2022/03/15 09:04:41;;;;;;;;;;;8.10;99.90;;;;;;5093823;28;20140;-77
2022/03/15 09:07:07;;;;;;;;;;;8.20;99.90;;;;;;5093127;28;19919;-78
2022/03/15 09:09:32;;;;;;;;;;;8.20;99.90;;;;;;5093574;28;19931;-78
2022/03/15 09:11:58;;;;;;;;;;;8.30;99.90;;;;;;5093055;28;20346;-78
2022/03/15 09:14:24;;;;;;;;;;;8.30;99.90;;;;;;5093497;28;19939;-78
2022/03/15 09:16:49;;;;;;;;;;;8.30;99.90;;;;;;5092887;28;19912;-78
2022/03/15 09:19:15;;;;;;;;;;;8.40;99.90;;;;;;5093215;28;20404;-79
2022/03/15 09:21:41;;;;;;;;;;;8.40;99.90;;;;;;5093499;28;19917;-78
2022/03/15 09:24:06;;;;;;;;;;;8.40;99.90;;;;;;5093159;28;20005;-78
2022/03/15 09:26:32;;;;;;;;;;;8.40;99.90;;;;;;5108292;28;19912;-78
2022/03/15 09:28:58;;;;;;;;;;;8.50;99.90;;;;;;5106978;28;19930;-78
2022/03/15 09:31:24;;;;;;;;;;;8.60;99.90;;;;;;5097360;28;20385;-78
2022/03/15 09:33:50;;;;;;;;;;;8.70;99.90;;;;;;5092776;28;20369;-78
2022/03/15 09:36:15;;;;;;;;;;;8.80;99.90;;;;;;5093514;28;19917;-79
2022/03/15 09:38:42;;;;;;;;;;;8.80;99.90;;;;;;5093548;28;19908;-79
2022/03/15 09:41:07;;;;;;;;;;;8.90;99.90;;;;;;5092508;28;20505;-79
2022/03/15 09:43:38;;;;;;;;;;;9.00;99.90;;;;;;5093451;28;19908;-78
2022/03/15 09:46:04;;;;;;;;;;;9.10;99.90;;;;;;5092308;28;19908;-79
2022/03/15 09:48:30;;;;;;;;;;;9.20;99.90;;;;;;5092688;28;19939;-80
2022/03/15 09:50:56;;;;;;;;;;;9.30;99.90;;;;;;5092469;28;19913;-77
2022/03/15 09:53:22;;;;;;;;;;;9.30;99.90;;;;;;5093591;28;19916;-77
2022/03/15 09:55:48;;;;;;;;;;;9.40;99.90;;;;;;5092692;28;20402;-75
2022/03/15 09:58:21;;;;;;;;;;;9.50;99.90;;;;;;5093507;28;19919;-76
2022/03/15 10:00:50;;;;;;;;;;;9.60;99.90;;;;;;5092822;28;19908;-76
2022/03/15 10:03:16;;;;;;;;;;;9.60;99.90;;;;;;5093557;28;19920;-77
2022/03/15 10:05:42;;;;;;;;;;;9.60;99.90;;;;;;5093459;28;19965;-77
2022/03/15 10:08:07;;;;;;;;;;;9.60;99.90;;;;;;5091983;28;19915;-77
2022/03/15 10:10:33;;;;;;;;;;;9.70;99.90;;;;;;5092452;28;20010;-77
2022/03/15 10:12:59;;;;;;;;;;;9.70;99.90;;;;;;5092487;28;19908;-77
2022/03/15 10:15:26;;;;;;;;;;;9.80;99.90;;;;;;5093296;28;19912;-78
2022/03/15 10:17:53;;;;;;;;;;;9.80;99.90;;;;;;5092609;28;19915;-77
2022/03/15 10:20:21;;;;;;;;;;;9.80;99.90;;;;;;5092892;28;19908;-77
2022/03/15 10:23:04;;;;;;;;;;;9.80;99.90;;;;;;5092908;28;20007;-77
2022/03/15 10:25:31;;;;;;;;;;;9.90;99.90;;;;;;5091443;28;19970;-77
2022/03/15 10:28:00;;;;;;;;;;;9.90;99.90;;;;;;5091840;28;19908;-77
2022/03/15 10:30:27;;;;;;;;;;;9.90;99.90;;;;;;5092699;28;19913;-77
2022/03/15 10:32:52;;;;;;;;;;;10.00;99.90;;;;;;5092266;28;19920;-77
2022/03/15 10:35:22;;;;;;;;;;;10.00;99.90;;;;;;5092212;28;19965;-77
2022/03/15 10:37:49;;;;;;;;;;;10.10;99.90;;;;;;5091940;28;19919;-78
2022/03/15 10:40:15;;;;;;;;;;;10.10;99.90;;;;;;5091955;28;19916;-77
2022/03/15 10:42:42;;;;;;;;;;;10.10;99.90;;;;;;5092061;28;20253;-78
2022/03/15 10:45:17;;;;;;;;;;;10.20;99.90;;;;;;5091706;28;19915;-79
2022/03/15 10:47:54;;;;;;;;;;;10.20;99.90;;;;;;5091944;28;20268;-78
2022/03/15 10:50:20;;;;;;;;;;;10.30;99.90;;;;;;5090857;28;19908;-77
2022/03/15 10:52:46;;;;;;;;;;;10.30;99.90;;;;;;5092091;28;19908;-79
2022/03/15 10:55:13;;;;;;;;;;;10.30;99.90;;;;;;5091416;28;20147;-77
2022/03/15 10:57:45;;;;;;;;;;;10.40;99.90;;;;;;5091791;28;19912;-77
2022/03/15 11:00:12;;;;;;;;;;;10.30;99.90;;;;;;5093173;28;19908;-78
2022/03/15 11:02:41;;;;;;;;;;;10.40;99.90;;;;;;5095527;28;19961;-78
2022/03/15 11:05:06;;;;;;;;;;;10.40;99.90;;;;;;5094202;28;19931;-78
2022/03/15 11:07:39;;;;;;;;;;;10.50;99.90;;;;;;5096200;28;20368;-78
2022/03/15 11:10:12;;;;;;;;;;;10.50;99.90;;;;;;5095688;28;19908;-79
2022/03/15 11:12:38;;;;;;;;;;;10.60;99.90;;;;;;5096809;28;19915;-78
2022/03/15 11:15:04;;;;;;;;;;;10.60;99.90;;;;;;5097024;28;20353;-77
2022/03/15 11:17:33;;;;;;;;;;;10.60;99.90;;;;;;5096416;28;19939;-77
2022/03/15 11:20:00;;;;;;;;;;;10.60;99.90;;;;;;5128298;27;19915;-76
2022/03/15 11:22:34;;;;;;;;;;;10.60;99.90;;;;;;5095855;28;19908;-77
2022/03/15 11:25:03;;;;;;;;;;;10.50;99.90;;;;;;5095624;28;19908;-77
2022/03/15 11:27:30;;;;;;;;;;;10.50;99.90;;;;;;5095834;28;20266;-77
2022/03/15 11:29:57;;;;;;;;;;;10.60;99.90;;;;;;5095603;28;19915;-78
2022/03/15 11:32:22;;;;;;;;;;;10.60;99.90;;;;;;5095943;28;19912;-77
2022/03/15 11:34:48;;;;;;;;;;;10.60;99.90;;;;;;5095626;28;20384;-79
2022/03/15 11:37:14;;;;;;;;;;;10.60;99.90;;;;;;5095372;28;20011;-78
2022/03/15 11:39:41;;;;;;;;;;;10.60;99.90;;;;;;5096052;28;19908;-77
2022/03/15 11:42:09;;;;;;;;;;;10.60;99.90;;;;;;5095356;28;19912;-78
2022/03/15 11:44:46;;;;;;;;;;;10.70;99.90;;;;;;5095823;28;19915;-78
2022/03/15 11:47:21;;;;;;;;;;;10.70;99.90;;;;;;5095343;28;20418;-77
2022/03/15 11:49:52;;;;;;;;;;;10.60;99.90;;;;;;5095747;28;19931;-79
2022/03/15 11:52:42;;;;;;;;;;;10.70;99.90;;;;;;5095475;28;19951;-76
2022/03/15 11:55:16;;;;;;;;;;;10.70;99.90;;;;;;5095062;28;19970;-76
2022/03/15 11:57:44;;;;;;;;;;;10.70;99.90;;;;;;5095505;28;19951;-76
2022/03/15 12:00:10;;;;;;;;;;;10.70;99.90;;;;;;5095057;28;19915;-77
2022/03/15 12:02:40;;;;;;;;;;;10.70;99.90;;;;;;5095130;28;19920;-78
2022/03/15 12:05:20;;;;;;;;;;;10.70;99.90;;;;;;5094566;28;19909;-78
2022/03/15 12:08:04;;;;;;;;;;;10.70;99.90;;;;;;5095493;28;19908;-79
2022/03/15 12:10:35;;;;;;;;;;;10.70;99.90;;;;;;5095429;28;20339;-79
2022/03/15 12:13:02;;;;;;;;;;;10.70;99.90;;;;;;5094811;28;19908;-78
2022/03/15 12:15:38;;;;;;;;;;;10.70;99.90;;;;;;5095144;28;20013;-78
2022/03/15 12:18:09;;;;;;;;;;;10.70;99.90;;;;;;5094557;28;19912;-77
2022/03/15 12:20:46;;;;;;;;;;;10.80;99.90;;;;;;5094994;28;19995;-76
2022/03/15 12:23:16;;;;;;;;;;;10.90;99.90;;;;;;5094554;28;19999;-78
2022/03/15 12:25:50;;;;;;;;;;;11.00;99.90;;;;;;5094708;28;20276;-76
2022/03/15 12:28:25;;;;;;;;;;;11.00;99.90;;;;;;5094595;28;20029;-77
2022/03/15 12:30:52;;;;;;;;;;;11.00;99.90;;;;;;5097263;28;19908;-76
2022/03/15 12:33:27;;;;;;;;;;;11.00;99.90;;;;;;5094224;28;20006;-76
2022/03/15 12:36:04;;;;;;;;;;;11.00;99.90;;;;;;5094844;28;19912;-79
2022/03/15 12:38:33;;;;;;;;;;;11.10;99.90;;;;;;5094666;28;20420;-79
2022/03/15 12:41:02;;;;;;;;;;;11.10;99.90;;;;;;5094232;28;19912;-78
2022/03/15 12:43:28;;;;;;;;;;;11.10;99.90;;;;;;5094647;28;19912;-78
2022/03/15 12:45:54;;;;;;;;;;;11.00;99.90;;;;;;5094722;28;19914;-78
2022/03/15 12:48:33;;;;;;;;;;;11.10;99.90;;;;;;5094097;28;19908;-79
2022/03/15 12:50:59;;;;;;;;;;;11.00;99.90;;;;;;5093442;28;20264;-77
2022/03/15 12:53:34;;;;;;;;;;;11.00;99.90;;;;;;5094247;28;19908;-78
2022/03/15 12:56:00;;;;;;;;;;;11.00;99.90;;;;;;5093576;28;20323;-78
2022/03/15 12:58:27;;;;;;;;;;;11.00;99.90;;;;;;5094738;28;19908;-78
2022/03/15 13:00:53;;;;;;;;;;;11.00;99.90;;;;;;5094312;28;20277;-78
2022/03/15 13:03:20;;;;;;;;;;;11.00;99.90;;;;;;5093659;28;19920;-78
2022/03/15 13:05:47;;;;;;;;;;;10.90;99.90;;;;;;5094327;28;19908;-79
2022/03/15 13:08:15;;;;;;;;;;;10.90;99.90;;;;;;5093646;28;19912;-77
2022/03/15 13:10:44;;;;;;;;;;;10.90;99.90;;;;;;5093948;28;19951;-77
2022/03/15 13:13:23;;;;;;;;;;;10.90;99.90;;;;;;5091997;28;19909;-77
2022/03/15 13:16:01;;;;;;;;;;;10.90;99.90;;;;;;5093244;28;19928;-82
2022/03/15 13:18:27;;;;;;;;;;;10.90;99.90;;;;;;5094330;28;19963;-77
2022/03/15 13:20:54;;;;;;;;;;;11.00;99.90;;;;;;5107014;28;19919;-77
2022/03/15 13:23:20;;;;;;;;;;;11.00;99.90;;;;;;5099039;28;20066;-77
2022/03/15 13:25:47;;;;;;;;;;;11.00;99.90;;;;;;5093128;28;19985;-77
2022/03/15 13:28:24;;;;;;;;;;;11.00;99.90;;;;;;5092524;28;20357;-77
2022/03/15 13:30:52;;;;;;;;;;;11.00;99.90;;;;;;5093304;28;19912;-80
2022/03/15 13:33:34;;;;;;;;;;;11.00;99.90;;;;;;5092336;28;19912;-78
2022/03/15 13:36:04;;;;;;;;;;;11.00;99.90;;;;;;5092930;28;19920;-76
2022/03/15 13:38:31;;;;;;;;;;;11.10;99.90;;;;;;5092987;28;20357;-77
2022/03/15 13:40:59;;;;;;;;;;;11.20;99.90;;;;;;5092833;28;20361;-77
2022/03/15 13:43:25;;;;;;;;;;;11.30;99.90;;;;;;5093749;28;20002;-76
2022/03/15 13:45:51;;;;;;;;;;;11.40;99.90;;;;;;5091345;28;20410;-77
2022/03/15 13:48:30;;;;;;;;;;;11.40;99.90;;;;;;5092321;28;19908;-77
2022/03/15 13:50:59;;;;;;;;;;;11.50;99.90;;;;;;5092688;28;20003;-77
2022/03/15 13:53:25;;;;;;;;;;;11.50;99.90;;;;;;5093092;28;20012;-77
2022/03/15 13:55:53;;;;;;;;;;;11.60;99.90;;;;;;5092859;28;19916;-80
2022/03/15 13:58:26;;;;;;;;;;;11.60;99.90;;;;;;5092113;28;20075;-78
2022/03/15 14:01:03;;;;;;;;;;;11.60;99.90;;;;;;5092452;28;19919;-78
2022/03/15 14:03:30;;;;;;;;;;;11.60;99.90;;;;;;5092533;28;19920;-78
2022/03/15 14:06:06;;;;;;;;;;;11.60;99.90;;;;;;5092619;28;19908;-78
2022/03/15 14:08:49;;;;;;;;;;;11.60;99.90;;;;;;5093105;28;20007;-78
2022/03/15 14:11:18;;;;;;;;;;;11.60;99.90;;;;;;5092082;28;19908;-78
2022/03/15 14:14:08;;;;;;;;;;;11.60;99.90;;;;;;5102281;28;20284;-78
2022/03/15 14:16:35;;;;;;;;;;;11.50;99.90;;;;;;5099604;28;20015;-78
2022/03/15 14:19:01;;;;;;;;;;;11.50;99.90;;;;;;5092100;28;19908;-77
2022/03/15 14:21:29;;;;;;;;;;;11.50;99.90;;;;;;5092072;28;19908;-79
2022/03/15 14:23:55;;;;;;;;;;;11.60;99.90;;;;;;5092852;28;19908;-79
2022/03/15 14:26:27;;;;;;;;;;;11.60;99.90;;;;;;5091719;28;19919;-79
2022/03/15 14:28:54;;;;;;;;;;;11.60;99.90;;;;;;5092375;28;20296;-79